sensor_id;sensor_type;location;lat;lon;timestamp;pressure;altitude;pressure_sealevel;temperature;humidity
43430;BME280;29028;43.234;27.896;2022-08-01T04:02:11;99488.66;;;20.33;72.71
43430;BME280;29028;43.234;27.896;2022-08-01T04:02:36;99482.63;;;20.31;71.02
43430;BME280;29028;43.234;27.896;2022-08-01T04:02:58;99484.53;;;20.31;70.95
43430;BME280;29028;43.234;27.896;2022-08-01T04:03:19;99484.84;;;20.29;70.54
43430;BME280;29028;43.234;27.896;2022-08-01T04:03:41;99486.72;;;20.29;70.38
43430;BME280;29028;43.234;27.896;2022-08-01T04:04:02;99492.22;;;20.34;70.82
43430;BME280;29028;43.234;27.896;2022-08-01T04:04:26;99481.03;;;20.35;69.56
43430;BME280;29028;43.234;27.896;2022-08-01T04:04:47;99489.47;;;20.34;70.66
43430;BME280;29028;43.234;27.896;2022-08-01T04:05:08;99487.59;;;20.34;69.37
43430;BME280;29028;43.234;27.896;2022-08-01T04:05:30;99486.19;;;20.37;68.34
43430;BME280;29028;43.234;27.896;2022-08-01T04:05:51;99485.38;;;20.36;69.27
43430;BME280;29028;43.234;27.896;2022-08-01T04:06:12;99481.56;;;20.37;68.62
43430;BME280;29028;43.234;27.896;2022-08-01T04:06:37;99482.69;;;20.46;68.74
43430;BME280;29028;43.234;27.896;2022-08-01T04:06:58;99487.56;;;20.44;68.70
43430;BME280;29028;43.234;27.896;2022-08-01T04:07:25;99482.13;;;20.49;68.08
43430;BME280;29028;43.234;27.896;2022-08-01T04:07:48;99483.25;;;20.58;67.68
43430;BME280;29028;43.234;27.896;2022-08-01T04:08:15;99487.06;;;20.77;67.36
43430;BME280;29028;43.234;27.896;2022-08-01T04:08:36;99480.22;;;20.75;66.61
43430;BME280;29028;43.234;27.896;2022-08-01T04:09:00;99484.66;;;20.81;66.63
43430;BME280;29028;43.234;27.896;2022-08-01T04:09:21;99483.81;;;20.80;65.74
43430;BME280;29028;43.234;27.896;2022-08-01T04:09:42;99476.44;;;20.81;64.82
43430;BME280;29028;43.234;27.896;2022-08-01T04:10:04;99480.81;;;20.82;65.81
43430;BME280;29028;43.234;27.896;2022-08-01T04:10:25;99483.81;;;20.85;65.72
43430;BME280;29028;43.234;27.896;2022-08-01T04:10:47;99480.25;;;20.85;65.19
43430;BME280;29028;43.234;27.896;2022-08-01T04:11:33;99482.75;;;20.91;65.08
43430;BME280;29028;43.234;27.896;2022-08-01T04:12:22;99479.47;;;20.89;64.47
43430;BME280;29028;43.234;27.896;2022-08-01T04:12:43;99480.00;;;20.96;64.33
43430;BME280;29028;43.234;27.896;2022-08-01T04:13:04;99487.13;;;20.92;64.96
43430;BME280;29028;43.234;27.896;2022-08-01T04:13:25;99482.75;;;20.96;64.16
43430;BME280;29028;43.234;27.896;2022-08-01T04:13:46;99486.59;;;20.95;64.86
43430;BME280;29028;43.234;27.896;2022-08-01T04:14:08;99488.50;;;21.05;65.18
43430;BME280;29028;43.234;27.896;2022-08-01T04:14:29;99492.34;;;21.09;64.78
43430;BME280;29028;43.234;27.896;2022-08-01T04:14:50;99486.03;;;21.03;65.03
43430;BME280;29028;43.234;27.896;2022-08-01T04:15:11;99489.31;;;21.05;65.53
43430;BME280;29028;43.234;27.896;2022-08-01T04:15:33;99487.97;;;21.03;65.40
43430;BME280;29028;43.234;27.896;2022-08-01T04:15:53;99499.97;;;20.97;65.49
43430;BME280;29028;43.234;27.896;2022-08-01T04:16:14;99489.03;;;21.02;64.81
43430;BME280;29028;43.234;27.896;2022-08-01T04:16:35;99489.31;;;20.95;65.44
43430;BME280;29028;43.234;27.896;2022-08-01T04:16:56;99495.88;;;20.99;66.34
43430;BME280;29028;43.234;27.896;2022-08-01T04:17:19;99496.16;;;21.03;65.94
43430;BME280;29028;43.234;27.896;2022-08-01T04:17:40;99495.34;;;21.07;65.12
43430;BME280;29028;43.234;27.896;2022-08-01T04:18:01;99497.81;;;21.09;65.74
43430;BME280;29028;43.234;27.896;2022-08-01T04:18:22;99492.59;;;21.17;66.47
43430;BME280;29028;43.234;27.896;2022-08-01T04:18:44;99494.75;;;21.20;67.10
43430;BME280;29028;43.234;27.896;2022-08-01T04:19:05;99495.34;;;21.27;66.11
43430;BME280;29028;43.234;27.896;2022-08-01T04:19:27;99492.03;;;21.20;64.95
43430;BME280;29028;43.234;27.896;2022-08-01T04:19:49;99484.38;;;21.17;64.85
43430;BME280;29028;43.234;27.896;2022-08-01T04:20:11;99478.91;;;21.17;64.53
43430;BME280;29028;43.234;27.896;2022-08-01T04:20:32;99492.59;;;21.32;63.87
43430;BME280;29028;43.234;27.896;2022-08-01T04:20:53;99495.88;;;21.29;63.60
43430;BME280;29028;43.234;27.896;2022-08-01T04:21:18;99489.56;;;21.24;63.40
43430;BME280;29028;43.234;27.896;2022-08-01T04:21:42;99470.94;;;21.26;64.91
43430;BME280;29028;43.234;27.896;2022-08-01T04:22:03;99478.34;;;21.30;63.67
43430;BME280;29028;43.234;27.896;2022-08-01T04:22:24;99489.03;;;21.27;64.21
43430;BME280;29028;43.234;27.896;2022-08-01T04:22:45;99486.81;;;21.24;63.88
43430;BME280;29028;43.234;27.896;2022-08-01T04:23:07;99475.59;;;21.20;64.51
43430;BME280;29028;43.234;27.896;2022-08-01T04:23:30;99487.94;;;21.18;64.87
43430;BME280;29028;43.234;27.896;2022-08-01T04:23:56;99479.72;;;21.23;65.49
43430;BME280;29028;43.234;27.896;2022-08-01T04:24:19;99481.06;;;21.35;63.82
43430;BME280;29028;43.234;27.896;2022-08-01T04:24:46;99495.84;;;21.34;63.26
43430;BME280;29028;43.234;27.896;2022-08-01T04:25:14;99479.44;;;21.29;64.06
43430;BME280;29028;43.234;27.896;2022-08-01T04:25:37;99485.44;;;21.36;63.65
43430;BME280;29028;43.234;27.896;2022-08-01T04:26:04;99477.78;;;21.43;64.31
43430;BME280;29028;43.234;27.896;2022-08-01T04:26:26;99483.78;;;21.40;64.30
43430;BME280;29028;43.234;27.896;2022-08-01T04:26:50;99481.34;;;21.34;63.40
43430;BME280;29028;43.234;27.896;2022-08-01T04:27:15;99487.06;;;21.37;63.24
43430;BME280;29028;43.234;27.896;2022-08-01T04:27:40;99483.53;;;21.37;63.50
43430;BME280;29028;43.234;27.896;2022-08-01T04:28:03;99485.16;;;21.38;63.55
43430;BME280;29028;43.234;27.896;2022-08-01T04:28:28;99483.25;;;21.38;64.48
43430;BME280;29028;43.234;27.896;2022-08-01T04:28:52;99480.22;;;21.40;63.71
43430;BME280;29028;43.234;27.896;2022-08-01T04:29:17;99465.47;;;21.31;64.74
43430;BME280;29028;43.234;27.896;2022-08-01T04:29:40;99485.69;;;21.40;63.68
43430;BME280;29028;43.234;27.896;2022-08-01T04:30:03;99474.75;;;21.35;63.31
43430;BME280;29028;43.234;27.896;2022-08-01T04:30:27;99480.22;;;21.40;63.57
43430;BME280;29028;43.234;27.896;2022-08-01T04:30:54;99492.84;;;21.31;63.68
43430;BME280;29028;43.234;27.896;2022-08-01T04:31:16;99480.78;;;21.37;65.31
43430;BME280;29028;43.234;27.896;2022-08-01T04:31:39;99492.28;;;21.29;64.57
43430;BME280;29028;43.234;27.896;2022-08-01T04:32:03;99488.47;;;21.25;63.67
43430;BME280;29028;43.234;27.896;2022-08-01T04:32:29;99490.13;;;21.21;63.96
43430;BME280;29028;43.234;27.896;2022-08-01T04:32:54;99495.59;;;21.21;65.20
43430;BME280;29028;43.234;27.896;2022-08-01T04:33:17;99484.38;;;21.12;63.72
43430;BME280;29028;43.234;27.896;2022-08-01T04:33:42;99491.22;;;21.15;65.06
43430;BME280;29028;43.234;27.896;2022-08-01T04:34:06;99491.50;;;21.23;64.74
43430;BME280;29028;43.234;27.896;2022-08-01T04:34:30;99491.19;;;21.35;66.38
43430;BME280;29028;43.234;27.896;2022-08-01T04:34:53;99492.03;;;21.30;65.29
43430;BME280;29028;43.234;27.896;2022-08-01T04:35:18;99495.88;;;21.24;65.24
43430;BME280;29028;43.234;27.896;2022-08-01T04:35:43;99491.75;;;21.22;65.58
43430;BME280;29028;43.234;27.896;2022-08-01T04:36:06;99494.78;;;21.15;65.07
43430;BME280;29028;43.234;27.896;2022-08-01T04:36:32;99492.59;;;21.12;65.30
43430;BME280;29028;43.234;27.896;2022-08-01T04:36:55;99495.59;;;21.16;66.24
43430;BME280;29028;43.234;27.896;2022-08-01T04:37:16;99497.81;;;21.19;66.51
43430;BME280;29028;43.234;27.896;2022-08-01T04:37:39;99485.75;;;21.25;66.54
43430;BME280;29028;43.234;27.896;2022-08-01T04:38:02;99492.84;;;21.31;66.14
43430;BME280;29028;43.234;27.896;2022-08-01T04:38:26;99491.75;;;21.27;64.81
43430;BME280;29028;43.234;27.896;2022-08-01T04:38:54;99487.91;;;21.28;64.91
43430;BME280;29028;43.234;27.896;2022-08-01T04:39:16;99484.06;;;21.39;67.61
43430;BME280;29028;43.234;27.896;2022-08-01T04:39:42;99486.53;;;21.35;65.20
43430;BME280;29028;43.234;27.896;2022-08-01T04:40:04;99480.22;;;21.35;64.38
43430;BME280;29028;43.234;27.896;2022-08-01T04:40:26;99489.28;;;21.30;64.90
43430;BME280;29028;43.234;27.896;2022-08-01T04:40:49;99482.16;;;21.29;64.95
43430;BME280;29028;43.234;27.896;2022-08-01T04:41:12;99489.56;;;21.34;65.13
43430;BME280;29028;43.234;27.896;2022-08-01T04:41:36;99480.22;;;21.35;63.75
43430;BME280;29028;43.234;27.896;2022-08-01T04:41:58;99486.28;;;21.32;64.50
43430;BME280;29028;43.234;27.896;2022-08-01T04:42:21;99479.97;;;21.31;65.03
43430;BME280;29028;43.234;27.896;2022-08-01T04:42:43;99489.03;;;21.27;64.92
43430;BME280;29028;43.234;27.896;2022-08-01T04:43:04;99490.94;;;21.21;65.15
43430;BME280;29028;43.234;27.896;2022-08-01T04:43:25;99487.13;;;21.22;65.65
43430;BME280;29028;43.234;27.896;2022-08-01T04:43:46;99497.50;;;21.30;65.96
43430;BME280;29028;43.234;27.896;2022-08-01T04:44:08;99487.91;;;21.33;65.82
43430;BME280;29028;43.234;27.896;2022-08-01T04:44:29;99487.09;;;21.32;65.60
43430;BME280;29028;43.234;27.896;2022-08-01T04:44:52;99493.13;;;21.29;66.09
43430;BME280;29028;43.234;27.896;2022-08-01T04:45:13;99482.16;;;21.29;64.68
43430;BME280;29028;43.234;27.896;2022-08-01T04:45:40;99487.38;;;21.26;65.64
43430;BME280;29028;43.234;27.896;2022-08-01T04:46:02;99490.91;;;21.31;65.85
43430;BME280;29028;43.234;27.896;2022-08-01T04:46:24;99492.00;;;21.35;66.06
43430;BME280;29028;43.234;27.896;2022-08-01T04:46:45;99490.13;;;21.36;66.24
43430;BME280;29028;43.234;27.896;2022-08-01T04:47:09;99489.53;;;21.39;65.15
43430;BME280;29028;43.234;27.896;2022-08-01T04:47:34;99482.69;;;21.31;65.11
43430;BME280;29028;43.234;27.896;2022-08-01T04:47:56;99490.66;;;21.38;65.31
43430;BME280;29028;43.234;27.896;2022-08-01T04:48:18;99484.38;;;21.27;65.50
43430;BME280;29028;43.234;27.896;2022-08-01T04:48:40;99493.13;;;21.29;65.59
43430;BME280;29028;43.234;27.896;2022-08-01T04:49:04;99481.34;;;21.24;65.39
43430;BME280;29028;43.234;27.896;2022-08-01T04:49:26;99490.13;;;21.26;65.22
43430;BME280;29028;43.234;27.896;2022-08-01T04:49:48;99495.03;;;21.29;65.02
43430;BME280;29028;43.234;27.896;2022-08-01T04:50:10;99503.53;;;21.32;64.46
43430;BME280;29028;43.234;27.896;2022-08-01T04:50:34;99489.81;;;21.37;64.64
43430;BME280;29028;43.234;27.896;2022-08-01T04:50:55;99484.63;;;21.36;65.40
43430;BME280;29028;43.234;27.896;2022-08-01T04:51:17;99487.66;;;21.34;65.10
43430;BME280;29028;43.234;27.896;2022-08-01T04:51:49;99487.91;;;21.33;65.46
43430;BME280;29028;43.234;27.896;2022-08-01T04:52:12;99491.47;;;21.38;65.52
43430;BME280;29028;43.234;27.896;2022-08-01T04:52:33;99485.44;;;21.36;65.35
43430;BME280;29028;43.234;27.896;2022-08-01T04:52:55;99492.59;;;21.32;65.02
43430;BME280;29028;43.234;27.896;2022-08-01T04:53:18;99492.00;;;21.35;65.33
43430;BME280;29028;43.234;27.896;2022-08-01T04:53:42;99485.16;;;21.38;65.53
43430;BME280;29028;43.234;27.896;2022-08-01T04:54:03;99487.06;;;21.37;65.03
43430;BME280;29028;43.234;27.896;2022-08-01T04:54:25;99480.22;;;21.35;65.08
43430;BME280;29028;43.234;27.896;2022-08-01T04:54:47;99488.75;;;21.38;65.83
43430;BME280;29028;43.234;27.896;2022-08-01T04:55:08;99488.19;;;21.36;65.08
43430;BME280;29028;43.234;27.896;2022-08-01T04:55:29;99485.44;;;21.36;64.89
43430;BME280;29028;43.234;27.896;2022-08-01T04:55:51;99485.44;;;21.41;64.45
43430;BME280;29028;43.234;27.896;2022-08-01T04:56:13;99471.47;;;21.43;65.43
43430;BME280;29028;43.234;27.896;2022-08-01T04:56:34;99480.47;;;21.48;65.23
43430;BME280;29028;43.234;27.896;2022-08-01T04:56:55;99478.28;;;21.50;66.14
43430;BME280;29028;43.234;27.896;2022-08-01T04:57:20;99489.53;;;21.54;65.26
43430;BME280;29028;43.234;27.896;2022-08-01T04:57:44;99490.31;;;21.59;65.92
43430;BME280;29028;43.234;27.896;2022-08-01T04:58:05;99489.50;;;21.59;65.35
43430;BME280;29028;43.234;27.896;2022-08-01T04:58:26;99495.00;;;21.59;65.08
43430;BME280;29028;43.234;27.896;2022-08-01T04:58:48;99482.66;;;21.61;64.71
43430;BME280;29028;43.234;27.896;2022-08-01T04:59:30;99485.94;;;21.68;64.36
43430;BME280;29028;43.234;27.896;2022-08-01T05:00:01;99492.25;;;21.64;64.46
43430;BME280;29028;43.234;27.896;2022-08-01T05:00:23;99491.69;;;21.72;64.80
43430;BME280;29028;43.234;27.896;2022-08-01T05:00:43;99478.56;;;21.69;64.25
43430;BME280;29028;43.234;27.896;2022-08-01T05:01:05;99477.72;;;21.68;64.42
43430;BME280;29028;43.234;27.896;2022-08-01T05:01:26;99482.41;;;21.68;64.37
43430;BME280;29028;43.234;27.896;2022-08-01T05:01:50;99488.66;;;21.78;64.37
43430;BME280;29028;43.234;27.896;2022-08-01T05:02:14;99489.19;;;21.75;63.02
43430;BME280;29028;43.234;27.896;2022-08-01T05:02:37;99484.81;;;21.79;63.61
43430;BME280;29028;43.234;27.896;2022-08-01T05:02:58;99489.19;;;21.80;63.50
43430;BME280;29028;43.234;27.896;2022-08-01T05:03:19;99489.72;;;21.87;63.66
43430;BME280;29028;43.234;27.896;2022-08-01T05:03:40;99486.16;;;21.87;63.35
43430;BME280;29028;43.234;27.896;2022-08-01T05:04:02;99496.00;;;21.88;63.81
43430;BME280;29028;43.234;27.896;2022-08-01T05:04:23;99474.34;;;21.86;63.42
43430;BME280;29028;43.234;27.896;2022-08-01T05:04:45;99484.25;;;21.82;64.24
43430;BME280;29028;43.234;27.896;2022-08-01T05:05:06;99488.38;;;21.85;63.81
43430;BME280;29028;43.234;27.896;2022-08-01T05:05:29;99486.16;;;21.87;63.51
43430;BME280;29028;43.234;27.896;2022-08-01T05:05:50;99493.28;;;21.88;62.96
43430;BME280;29028;43.234;27.896;2022-08-01T05:06:11;99492.47;;;21.87;63.69
43430;BME280;29028;43.234;27.896;2022-08-01T05:06:32;99492.72;;;21.96;63.53
43430;BME280;29028;43.234;27.896;2022-08-01T05:06:53;99489.72;;;21.92;62.99
43430;BME280;29028;43.234;27.896;2022-08-01T05:07:15;99493.78;;;21.95;62.83
43430;BME280;29028;43.234;27.896;2022-08-01T05:07:36;99491.59;;;21.97;63.66
43430;BME280;29028;43.234;27.896;2022-08-01T05:07:57;99491.03;;;22.00;63.66
43430;BME280;29028;43.234;27.896;2022-08-01T05:08:18;99489.63;;;22.07;64.37
43430;BME280;29028;43.234;27.896;2022-08-01T05:08:39;99489.88;;;22.11;63.30
43430;BME280;29028;43.234;27.896;2022-08-01T05:09:01;99488.25;;;22.10;62.79
43430;BME280;29028;43.234;27.896;2022-08-01T05:09:22;99488.25;;;22.10;62.98
43430;BME280;29028;43.234;27.896;2022-08-01T05:09:43;99494.56;;;22.10;63.22
43430;BME280;29028;43.234;27.896;2022-08-01T05:10:06;99490.97;;;22.10;63.48
43430;BME280;29028;43.234;27.896;2022-08-01T05:10:28;99486.31;;;22.15;62.78
43430;BME280;29028;43.234;27.896;2022-08-01T05:10:48;99482.75;;;22.10;63.11
43430;BME280;29028;43.234;27.896;2022-08-01T05:11:09;99479.47;;;22.13;63.68
43430;BME280;29028;43.234;27.896;2022-08-01T05:11:31;99491.81;;;22.10;62.38
43430;BME280;29028;43.234;27.896;2022-08-01T05:11:52;99483.31;;;22.12;63.00
43430;BME280;29028;43.234;27.896;2022-08-01T05:12:13;99493.97;;;22.13;62.25
43430;BME280;29028;43.234;27.896;2022-08-01T05:12:34;99480.88;;;22.05;62.55
43430;BME280;29028;43.234;27.896;2022-08-01T05:12:56;99496.75;;;22.08;62.27
43430;BME280;29028;43.234;27.896;2022-08-01T05:13:17;99475.13;;;22.07;62.48
43430;BME280;29028;43.234;27.896;2022-08-01T05:13:38;99485.75;;;22.13;62.86
43430;BME280;29028;43.234;27.896;2022-08-01T05:13:59;99485.47;;;22.15;62.57
43430;BME280;29028;43.234;27.896;2022-08-01T05:14:19;99477.81;;;22.17;62.44
43430;BME280;29028;43.234;27.896;2022-08-01T05:14:41;99473.44;;;22.11;62.79
43430;BME280;29028;43.234;27.896;2022-08-01T05:15:03;99481.66;;;22.11;64.23
43430;BME280;29028;43.234;27.896;2022-08-01T05:15:24;99472.03;;;22.13;63.25
43430;BME280;29028;43.234;27.896;2022-08-01T05:15:47;99484.94;;;22.13;62.50
43430;BME280;29028;43.234;27.896;2022-08-01T05:16:08;99480.56;;;22.12;61.66
43430;BME280;29028;43.234;27.896;2022-08-01T05:16:29;99472.88;;;22.14;61.43
43430;BME280;29028;43.234;27.896;2022-08-01T05:16:50;99478.59;;;22.22;62.71
43430;BME280;29028;43.234;27.896;2022-08-01T05:17:12;99476.69;;;22.18;61.08
43430;BME280;29028;43.234;27.896;2022-08-01T05:17:32;99472.06;;;22.08;60.93
43430;BME280;29028;43.234;27.896;2022-08-01T05:17:55;99483.84;;;22.14;61.33
43430;BME280;29028;43.234;27.896;2022-08-01T05:18:16;99475.63;;;22.14;60.39
43430;BME280;29028;43.234;27.896;2022-08-01T05:18:38;99473.72;;;22.14;60.46
43430;BME280;29028;43.234;27.896;2022-08-01T05:18:59;99479.13;;;22.19;62.87
43430;BME280;29028;43.234;27.896;2022-08-01T05:19:20;99483.25;;;22.22;62.37
43430;BME280;29028;43.234;27.896;2022-08-01T05:19:41;99485.72;;;22.23;61.59
43430;BME280;29028;43.234;27.896;2022-08-01T05:20:04;99481.31;;;22.27;61.28
43430;BME280;29028;43.234;27.896;2022-08-01T05:20:26;99476.38;;;22.24;61.10
43430;BME280;29028;43.234;27.896;2022-08-01T05:20:47;99492.25;;;22.32;62.58
43430;BME280;29028;43.234;27.896;2022-08-01T05:21:08;99491.94;;;22.39;62.06
43430;BME280;29028;43.234;27.896;2022-08-01T05:21:30;99483.41;;;22.40;60.83
43430;BME280;29028;43.234;27.896;2022-08-01T05:21:51;99478.22;;;22.44;60.28
43430;BME280;29028;43.234;27.896;2022-08-01T05:22:12;99476.53;;;22.43;59.98
43430;BME280;29028;43.234;27.896;2022-08-01T05:22:33;99493.28;;;22.46;59.88
43430;BME280;29028;43.234;27.896;2022-08-01T05:22:55;99473.56;;;22.39;60.40
43430;BME280;29028;43.234;27.896;2022-08-01T05:23:15;99485.03;;;22.51;61.75
43430;BME280;29028;43.234;27.896;2022-08-01T05:23:36;99491.91;;;22.49;60.39
43430;BME280;29028;43.234;27.896;2022-08-01T05:23:58;99474.38;;;22.40;59.79
43430;BME280;29028;43.234;27.896;2022-08-01T05:24:19;99481.22;;;22.86;61.09
43430;BME280;29028;43.234;27.896;2022-08-01T05:24:40;99484.78;;;22.86;61.14
43430;BME280;29028;43.234;27.896;2022-08-01T05:25:01;99475.69;;;23.24;62.45
43430;BME280;29028;43.234;27.896;2022-08-01T05:25:22;99484.91;;;23.05;58.02
43430;BME280;29028;43.234;27.896;2022-08-01T05:25:44;99484.03;;;23.09;59.73
43430;BME280;29028;43.234;27.896;2022-08-01T05:26:04;99479.22;;;22.96;59.45
43430;BME280;29028;43.234;27.896;2022-08-01T05:26:26;99477.63;;;22.90;59.16
43430;BME280;29028;43.234;27.896;2022-08-01T05:26:46;99475.75;;;22.81;59.56
43430;BME280;29028;43.234;27.896;2022-08-01T05:27:07;99460.00;;;22.96;59.92
43430;BME280;29028;43.234;27.896;2022-08-01T05:27:29;99477.50;;;23.00;59.54
43430;BME280;29028;43.234;27.896;2022-08-01T05:27:50;99475.91;;;22.94;59.86
43430;BME280;29028;43.234;27.896;2022-08-01T05:28:11;99478.72;;;23.23;62.59
43430;BME280;29028;43.234;27.896;2022-08-01T05:28:31;99473.56;;;23.45;63.25
43430;BME280;29028;43.234;27.896;2022-08-01T05:28:53;99479.88;;;23.45;60.17
43430;BME280;29028;43.234;27.896;2022-08-01T05:29:14;99478.63;;;23.33;58.92
43430;BME280;29028;43.234;27.896;2022-08-01T05:29:35;99484.88;;;23.67;60.20
43430;BME280;29028;43.234;27.896;2022-08-01T05:29:56;99480.00;;;23.59;60.27
43430;BME280;29028;43.234;27.896;2022-08-01T05:30:18;99472.69;;;23.49;60.10
43430;BME280;29028;43.234;27.896;2022-08-01T05:30:39;99483.28;;;23.61;59.84
43430;BME280;29028;43.234;27.896;2022-08-01T05:31:00;99473.84;;;23.43;57.10
43430;BME280;29028;43.234;27.896;2022-08-01T05:31:21;99477.03;;;23.27;58.00
43430;BME280;29028;43.234;27.896;2022-08-01T05:31:42;99480.94;;;23.21;59.58
43430;BME280;29028;43.234;27.896;2022-08-01T05:32:05;99485.34;;;23.50;61.78
43430;BME280;29028;43.234;27.896;2022-08-01T05:32:25;99484.28;;;23.46;60.00
43430;BME280;29028;43.234;27.896;2022-08-01T05:32:47;99488.69;;;23.71;62.27
43430;BME280;29028;43.234;27.896;2022-08-01T05:33:09;99491.81;;;23.59;57.25
43430;BME280;29028;43.234;27.896;2022-08-01T05:33:31;99487.88;;;23.42;58.22
43430;BME280;29028;43.234;27.896;2022-08-01T05:33:52;99480.06;;;23.25;58.10
43430;BME280;29028;43.234;27.896;2022-08-01T05:34:13;99480.63;;;23.22;59.23
43430;BME280;29028;43.234;27.896;2022-08-01T05:34:35;99493.16;;;23.33;60.45
43430;BME280;29028;43.234;27.896;2022-08-01T05:34:56;99496.06;;;23.47;60.58
43430;BME280;29028;43.234;27.896;2022-08-01T05:35:17;99493.75;;;23.30;58.22
43430;BME280;29028;43.234;27.896;2022-08-01T05:35:38;99484.09;;;23.38;59.12
43430;BME280;29028;43.234;27.896;2022-08-01T05:35:59;99490.84;;;23.17;57.65
43430;BME280;29028;43.234;27.896;2022-08-01T05:36:20;99490.81;;;23.22;58.87
43430;BME280;29028;43.234;27.896;2022-08-01T05:36:42;99487.69;;;23.33;58.00
43430;BME280;29028;43.234;27.896;2022-08-01T05:37:03;99494.28;;;23.32;58.62
43430;BME280;29028;43.234;27.896;2022-08-01T05:37:24;99493.47;;;23.32;59.54
43430;BME280;29028;43.234;27.896;2022-08-01T05:37:44;99490.19;;;23.30;58.13
43430;BME280;29028;43.234;27.896;2022-08-01T05:38:06;99499.78;;;23.32;56.56
43430;BME280;29028;43.234;27.896;2022-08-01T05:38:27;99488.38;;;23.15;55.70
43430;BME280;29028;43.234;27.896;2022-08-01T05:38:48;99481.53;;;23.18;56.08
43430;BME280;29028;43.234;27.896;2022-08-01T05:39:09;99490.59;;;23.13;56.76
43430;BME280;29028;43.234;27.896;2022-08-01T05:39:31;99485.94;;;23.09;57.57
43430;BME280;29028;43.234;27.896;2022-08-01T05:39:52;99488.94;;;23.17;57.63
43430;BME280;29028;43.234;27.896;2022-08-01T05:40:12;99485.53;;;23.30;58.09
43430;BME280;29028;43.234;27.896;2022-08-01T05:40:35;99489.94;;;23.26;58.98
43430;BME280;29028;43.234;27.896;2022-08-01T05:40:56;99485.28;;;23.27;57.23
43430;BME280;29028;43.234;27.896;2022-08-01T05:41:17;99483.84;;;23.34;58.94
43430;BME280;29028;43.234;27.896;2022-08-01T05:41:38;99489.56;;;23.38;57.67
43430;BME280;29028;43.234;27.896;2022-08-01T05:42:00;99478.66;;;23.56;58.22
43430;BME280;29028;43.234;27.896;2022-08-01T05:42:21;99491.13;;;23.49;58.31
43430;BME280;29028;43.234;27.896;2022-08-01T05:42:42;99487.63;;;23.38;56.28
43430;BME280;29028;43.234;27.896;2022-08-01T05:43:02;99492.38;;;23.33;56.56
43430;BME280;29028;43.234;27.896;2022-08-01T05:43:24;99486.63;;;23.29;56.56
43430;BME280;29028;43.234;27.896;2022-08-01T05:43:45;99492.75;;;23.21;56.85
43430;BME280;29028;43.234;27.896;2022-08-01T05:44:06;99487.00;;;23.18;56.94
43430;BME280;29028;43.234;27.896;2022-08-01T05:44:28;99492.94;;;23.30;57.44
43430;BME280;29028;43.234;27.896;2022-08-01T05:44:49;99486.19;;;23.17;56.01
43430;BME280;29028;43.234;27.896;2022-08-01T05:45:11;99486.13;;;23.22;55.99
43430;BME280;29028;43.234;27.896;2022-08-01T05:45:32;99489.72;;;23.23;56.60
43430;BME280;29028;43.234;27.896;2022-08-01T05:45:53;99489.53;;;23.43;56.86
43430;BME280;29028;43.234;27.896;2022-08-01T05:46:14;99483.78;;;23.39;55.72
43430;BME280;29028;43.234;27.896;2022-08-01T05:46:35;99490.31;;;23.43;56.54
43430;BME280;29028;43.234;27.896;2022-08-01T05:46:57;99493.06;;;23.43;56.64
43430;BME280;29028;43.234;27.896;2022-08-01T05:47:18;99477.72;;;23.42;57.02
43430;BME280;29028;43.234;27.896;2022-08-01T05:47:38;99484.69;;;23.58;59.02
43430;BME280;29028;43.234;27.896;2022-08-01T05:47:59;99488.00;;;23.55;56.49
43430;BME280;29028;43.234;27.896;2022-08-01T05:48:23;99486.91;;;23.80;57.65
43430;BME280;29028;43.234;27.896;2022-08-01T05:48:43;99486.09;;;23.79;55.67
43430;BME280;29028;43.234;27.896;2022-08-01T05:49:05;99491.38;;;23.76;55.86
43430;BME280;29028;43.234;27.896;2022-08-01T05:49:26;99485.16;;;23.65;55.57
43430;BME280;29028;43.234;27.896;2022-08-01T05:49:47;99494.69;;;23.73;57.64
43430;BME280;29028;43.234;27.896;2022-08-01T05:50:09;99483.63;;;23.78;56.77
43430;BME280;29028;43.234;27.896;2022-08-01T05:50:29;99493.34;;;23.70;55.19
43430;BME280;29028;43.234;27.896;2022-08-01T05:50:50;99504.00;;;23.77;54.84
43430;BME280;29028;43.234;27.896;2022-08-01T05:51:12;99492.34;;;23.61;54.33
43430;BME280;29028;43.234;27.896;2022-08-01T05:51:33;99488.38;;;23.72;54.68
43430;BME280;29028;43.234;27.896;2022-08-01T05:51:54;99486.78;;;23.66;55.40
43430;BME280;29028;43.234;27.896;2022-08-01T05:52:15;99489.59;;;23.61;54.35
43430;BME280;29028;43.234;27.896;2022-08-01T05:52:36;99496.75;;;23.62;54.53
43430;BME280;29028;43.234;27.896;2022-08-01T05:52:57;99494.13;;;23.76;55.36
43430;BME280;29028;43.234;27.896;2022-08-01T05:53:18;99495.69;;;23.82;55.90
43430;BME280;29028;43.234;27.896;2022-08-01T05:53:40;99497.47;;;23.96;55.14
43430;BME280;29028;43.234;27.896;2022-08-01T05:54:01;99491.53;;;23.84;54.53
43430;BME280;29028;43.234;27.896;2022-08-01T05:54:22;99490.78;;;24.02;55.53
43430;BME280;29028;43.234;27.896;2022-08-01T05:54:43;99491.94;;;24.20;55.72
43430;BME280;29028;43.234;27.896;2022-08-01T05:55:06;99497.06;;;24.26;55.37
43430;BME280;29028;43.234;27.896;2022-08-01T05:55:27;99495.00;;;24.37;56.74
43430;BME280;29028;43.234;27.896;2022-08-01T05:55:48;99491.22;;;24.33;55.00
43430;BME280;29028;43.234;27.896;2022-08-01T05:56:09;99502.44;;;24.36;54.64
43430;BME280;29028;43.234;27.896;2022-08-01T05:56:31;99496.13;;;24.36;54.54
43430;BME280;29028;43.234;27.896;2022-08-01T05:56:52;99494.94;;;24.42;55.44
43430;BME280;29028;43.234;27.896;2022-08-01T05:57:13;99487.03;;;24.17;54.06
43430;BME280;29028;43.234;27.896;2022-08-01T05:57:33;99488.97;;;24.16;55.01
43430;BME280;29028;43.234;27.896;2022-08-01T05:57:55;99493.59;;;23.97;54.54
43430;BME280;29028;43.234;27.896;2022-08-01T05:58:16;99492.31;;;23.90;54.45